Time;durP1;ratioP1;P1;durP2;ratioP2;P2;SDS_P1;SDS_P2;PMS_P1;PMS_P2;Temp;Humidity;BMP_temperature;BMP_pressure;BME280_temperature;BME280_humidity;BME280_pressure;Samples;Min_cycle;Max_cycle;Signal;HPM_P1;HPM_P2
2021/12/15 00:02:21;;;;;;;36.92;19.52;;;9.90;99.90;;;8.38;100.00;101865.56;5051536;28;20045;-88
2021/12/15 00:04:51;;;;;;;34.85;19.13;;;9.90;99.90;;;8.37;100.00;101858.41;5051835;28;20049;-88
2021/12/15 00:07:19;;;;;;;33.15;19.23;;;9.90;99.90;;;8.38;100.00;101860.97;5051968;28;20564;-88
2021/12/15 00:09:48;;;;;;;34.92;19.92;;;9.90;99.90;;;8.39;100.00;101862.69;5051890;28;20041;-88
2021/12/15 00:12:17;;;;;;;38.15;19.58;;;9.90;99.90;;;8.38;100.00;101860.97;5051722;28;20114;-87
2021/12/15 00:14:46;;;;;;;35.17;19.73;;;9.90;99.90;;;8.35;100.00;101865.81;5049715;28;20099;-87
2021/12/15 00:17:18;;;;;;;36.65;18.83;;;10.00;99.90;;;8.27;100.00;101860.22;5051768;28;20080;-87
2021/12/15 00:19:47;;;;;;;34.42;18.40;;;10.00;99.90;;;8.30;100.00;101862.66;5051908;28;20602;-88
2021/12/15 00:22:14;;;;;;;32.88;17.83;;;9.90;99.90;;;8.32;100.00;101866.97;5051307;28;20520;-87
2021/12/15 00:24:42;;;;;;;34.45;18.73;;;10.00;99.90;;;8.40;100.00;101864.41;5051394;28;20123;-87
2021/12/15 00:27:09;;;;;;;36.78;19.58;;;9.90;99.90;;;8.37;100.00;101863.81;5051561;28;20052;-87
2021/12/15 00:29:37;;;;;;;30.95;18.50;;;9.90;99.90;;;8.37;100.00;101869.25;5051104;28;20516;-88
2021/12/15 00:32:06;;;;;;;34.88;18.13;;;9.90;99.90;;;8.35;100.00;101876.66;5051194;28;20041;-87
2021/12/15 00:34:40;;;;;;;31.25;18.05;;;9.90;99.90;;;8.32;100.00;101875.09;5035840;28;20045;-87
2021/12/15 00:37:09;;;;;;;31.58;16.75;;;9.90;99.90;;;8.31;100.00;101870.66;5051443;28;20037;-87
2021/12/15 00:39:36;;;;;;;30.58;16.98;;;10.00;99.90;;;8.36;100.00;101884.69;5036699;28;20055;-87
2021/12/15 00:42:04;;;;;;;31.88;17.08;;;9.90;99.90;;;8.31;100.00;101870.66;5072900;28;20571;-88
2021/12/15 00:44:32;;;;;;;31.90;17.10;;;9.90;99.90;;;8.35;100.00;101871.25;5090808;28;20068;-87
2021/12/15 00:47:01;;;;;;;29.35;17.40;;;9.90;99.90;;;8.36;100.00;101876.53;5091471;28;20050;-87
2021/12/15 00:49:28;;;;;;;31.25;17.20;;;10.00;99.90;;;8.32;100.00;101876.94;5073403;28;20139;-87
2021/12/15 00:51:59;;;;;;;29.83;16.73;;;10.00;99.90;;;8.35;100.00;101865.81;5072782;28;20127;-87
2021/12/15 00:54:27;;;;;;;32.25;16.80;;;9.90;99.90;;;8.43;100.00;101873.31;5090635;28;20043;-87
2021/12/15 00:56:56;;;;;;;30.98;16.67;;;9.90;99.90;;;8.43;100.00;101871.44;5072917;28;20043;-87
2021/12/15 00:59:24;;;;;;;34.75;16.88;;;10.00;99.90;;;8.37;100.00;101869.25;5090742;28;20567;-87
2021/12/15 01:01:53;;;;;;;28.45;17.60;;;10.00;99.90;;;8.37;100.00;101863.81;5090730;28;20058;-87
2021/12/15 01:04:23;;;;;;;35.03;18.15;;;10.00;99.90;;;8.37;100.00;101869.25;5090869;28;20044;-87
2021/12/15 01:07:04;;;;;;;30.17;17.15;;;10.00;99.90;;;8.40;100.00;101863.56;5090801;28;20055;-88
2021/12/15 01:09:39;;;;;;;31.70;17.95;;;10.00;99.90;;;8.45;100.00;101869.44;5072786;28;20086;-87
2021/12/15 01:12:19;;;;;;;35.42;17.98;;;10.00;99.90;;;8.43;100.00;101863.31;5090710;28;20044;-87
2021/12/15 01:20:33;;;;;;;29.67;16.40;;;10.00;99.90;;;8.32;100.00;101866.97;5072541;28;20048;-87
2021/12/15 01:23:07;;;;;;;34.40;18.10;;;10.00;99.90;;;8.38;100.00;101862.84;5059261;28;20051;-87
2021/12/15 01:25:38;;;;;;;25.52;16.20;;;9.90;99.90;;;8.44;100.00;101870.47;5070388;28;20044;-87
2021/12/15 01:28:06;;;;;;;;;;;10.00;99.90;;;8.44;100.00;101870.47;5052825;28;20056;-87
2021/12/15 01:30:38;;;;;;;29.65;17.38;;;9.90;99.90;;;8.43;100.00;101868.72;5051786;28;20529;-87
2021/12/15 01:33:07;;;;;;;29.02;16.50;;;10.00;99.90;;;8.42;100.00;101869.75;5051904;28;20055;-86
2021/12/15 01:35:37;;;;;;;27.80;16.05;;;10.00;99.90;;;8.43;100.00;101876.88;5052122;28;20412;-87
2021/12/15 01:38:06;;;;;;;27.40;16.60;;;10.00;99.90;;;8.31;100.00;101872.53;5052076;28;20049;-87
2021/12/15 01:40:38;;;;;;;28.55;16.27;;;10.00;99.90;;;8.30;100.00;101877.09;5061782;28;20093;-87
2021/12/15 01:43:13;;;;;;;;;;;10.00;99.90;;;8.36;100.00;101881.13;5090483;28;20130;-87
2021/12/15 01:48:25;;;;;;;27.88;16.25;;;10.00;99.90;;;8.33;100.00;101873.25;5051701;28;20102;-86
2021/12/15 01:50:52;;;;;;;29.73;17.85;;;9.90;99.90;;;8.35;100.00;101871.25;5051968;28;20045;-88
2021/12/15 01:53:21;;;;;;;25.90;15.82;;;9.90;99.90;;;8.31;100.00;101880.66;5068242;28;20123;-88
2021/12/15 01:55:50;;;;;;;28.13;15.98;;;9.90;99.90;;;8.27;100.00;101868.38;5069951;28;20121;-88
2021/12/15 01:58:18;;;;;;;27.90;15.82;;;9.90;99.90;;;8.29;100.00;101882.66;5051687;28;20048;-87
2021/12/15 02:00:49;;;;;;;28.77;15.90;;;9.90;99.90;;;8.32;100.00;101866.97;5051478;28;20488;-87
2021/12/15 02:03:17;;;;;;;24.85;15.35;;;9.90;99.90;;;8.34;100.00;101877.66;5069585;28;20037;-87
2021/12/15 02:05:44;;;;;;;26.40;15.48;;;9.90;99.90;;;8.35;100.00;101868.53;5068857;28;20044;-87
2021/12/15 02:08:13;;;;;;;26.35;15.93;;;9.90;99.90;;;8.33;100.00;101874.09;5051758;28;20159;-87
2021/12/15 02:10:44;;;;;;;28.92;16.30;;;9.90;99.90;;;8.36;100.00;101876.53;5051412;28;20421;-87
2021/12/15 02:13:17;;;;;;;28.15;16.60;;;9.90;99.90;;;8.37;100.00;101872.81;5051182;28;20133;-87
2021/12/15 02:15:47;;;;;;;30.13;17.20;;;9.80;99.90;;;8.39;100.00;101872.69;5050825;28;20080;-87
2021/12/15 02:18:18;;;;;;;29.35;16.35;;;9.90;99.90;;;8.37;100.00;101872.81;5069652;28;20110;-88
2021/12/15 02:20:51;;;;;;;27.88;17.40;;;9.90;99.90;;;8.37;100.00;101874.69;5051326;28;20052;-87
2021/12/15 02:23:27;;;;;;;27.95;16.90;;;9.90;99.90;;;8.38;100.00;101879.13;5051034;28;20122;-86
2021/12/15 02:25:55;;;;;;;28.77;17.05;;;9.90;99.90;;;8.42;100.00;101872.47;5051162;28;20067;-88
2021/12/15 02:28:23;;;;;;;29.60;17.45;;;9.90;99.90;;;8.32;100.00;101876.94;5051208;28;20040;-88
2021/12/15 02:30:55;;;;;;;29.98;17.63;;;9.90;99.90;;;8.28;100.00;101870.06;5050240;28;20098;-87
2021/12/15 02:33:51;;;;;;;31.13;17.27;;;9.90;99.90;;;8.27;100.00;101877.34;5051010;28;20131;-85
2021/12/15 02:39:08;;;;;;;27.38;16.77;;;9.90;99.90;;;8.41;100.00;101882.47;5050940;28;20142;-88
2021/12/15 02:41:37;;;;;;;;;;;9.90;99.90;;;8.36;100.00;101872.97;5069527;28;20052;-87
2021/12/15 02:44:10;;;;;;;30.67;17.00;;;9.90;99.90;;;8.40;100.00;101869.84;5070355;28;19924;-86
2021/12/15 02:46:40;;;;;;;29.83;17.08;;;9.90;99.90;;;8.43;100.00;101871.44;5070625;28;20460;-88
2021/12/15 02:49:10;;;;;;;37.28;18.17;;;9.90;99.90;;;8.34;100.00;101874.94;5089039;28;20131;-87
2021/12/15 02:51:42;;;;;;;35.83;18.40;;;9.90;99.90;;;8.34;100.00;101866.81;5088863;28;20064;-88
2021/12/15 02:54:12;;;;;;;35.22;18.02;;;9.90;99.90;;;8.30;100.00;101868.06;5070372;28;20109;-88
2021/12/15 02:56:41;;;;;;;30.10;17.40;;;10.00;99.90;;;8.28;100.00;101861.94;5070302;28;20039;-88
2021/12/15 02:59:10;;;;;;;30.90;18.02;;;9.90;99.90;;;8.28;100.00;101864.66;5088322;28;20047;-87
2021/12/15 03:01:55;;;;;;;29.67;17.23;;;10.00;99.90;;;8.20;100.00;101868.88;5088353;28;20125;-88
2021/12/15 03:04:30;;;;;;;34.75;18.27;;;9.90;99.90;;;8.17;100.00;101869.19;5088696;28;20051;-88
2021/12/15 03:07:08;;;;;;;37.17;18.25;;;9.90;99.90;;;8.18;100.00;101859.19;5088889;28;20041;-87
2021/12/15 03:15:33;;;;;;;33.42;19.02;;;9.90;99.90;;;8.13;100.00;101862.31;5047694;28;20186;-88
2021/12/15 03:18:09;;;;;;;30.23;18.17;;;9.90;99.90;;;8.16;100.00;101858.47;5088838;28;20075;-88
2021/12/15 03:20:42;;;;;;;37.63;19.58;;;9.80;99.90;;;8.15;100.00;101868.47;5088434;28;20067;-88
2021/12/15 03:23:13;;;;;;;33.03;18.88;;;9.80;99.90;;;8.16;100.00;101866.59;5077836;28;20044;-88
2021/12/15 03:25:41;;;;;;;39.08;19.50;;;9.90;99.90;;;8.18;100.00;101859.19;5068184;28;20832;-86
2021/12/15 03:33:54;;;;;;;38.15;20.33;;;9.80;99.90;;;8.16;100.00;101867.44;5026979;28;20105;-86
2021/12/15 03:36:37;;;;;;;32.58;19.17;;;9.80;99.90;;;8.17;100.00;101873.75;5068416;28;20052;-86
2021/12/15 03:39:08;;;;;;;37.38;20.23;;;9.90;99.90;;;8.12;100.00;101871.44;5068146;28;20105;-85
2021/12/15 03:41:35;;;;;;;34.38;19.10;;;9.90;99.90;;;8.07;100.00;101873.69;5086317;28;20071;-86
2021/12/15 03:44:04;;;;;;;39.13;20.05;;;9.90;99.90;;;8.15;100.00;101864.91;5087867;28;20090;-86
2021/12/15 03:46:31;;;;;;;37.25;19.67;;;9.90;99.90;;;8.17;100.00;101869.19;5088369;28;20127;-86
2021/12/15 03:48:59;;;;;;;33.10;18.90;;;9.90;99.90;;;8.25;100.00;101871.22;5088405;28;20136;-86
2021/12/15 03:51:27;;;;;;;38.70;20.52;;;9.90;99.90;;;8.27;100.00;101873.78;5088128;28;20086;-86
2021/12/15 03:53:54;;;;;;;30.30;17.88;;;9.90;99.90;;;8.32;100.00;101868.78;5088147;28;20109;-86
2021/12/15 03:56:23;;;;;;;35.13;19.92;;;9.90;99.90;;;8.33;100.00;101884.09;5088235;28;20125;-85
2021/12/15 03:58:50;;;;;;;33.63;18.88;;;9.90;99.90;;;8.34;100.00;101883.06;5069627;28;20048;-86
2021/12/15 04:01:23;;;;;;;32.17;18.45;;;10.00;99.90;;;8.31;100.00;101880.66;5087611;28;20043;-86
2021/12/15 04:03:53;;;;;;;32.40;18.20;;;10.00;99.90;;;8.31;100.00;101886.09;5069722;28;20048;-87
2021/12/15 04:06:26;;;;;;;34.63;18.95;;;10.00;99.90;;;8.36;100.00;101883.81;5088207;28;20523;-86
2021/12/15 04:08:55;;;;;;;38.17;19.58;;;10.00;99.90;;;8.39;100.00;101878.09;5088219;28;20047;-86
2021/12/15 04:11:32;;;;;;;37.28;19.50;;;10.00;99.90;;;8.40;100.00;101894.25;5087906;28;20044;-86
2021/12/15 04:14:00;;;;;;;37.47;19.45;;;10.00;99.90;;;8.36;100.00;101887.41;5087782;28;20044;-85
2021/12/15 04:16:43;;;;;;;33.90;18.85;;;10.00;99.90;;;8.35;100.00;101895.66;5069640;28;20106;-85
2021/12/15 04:19:14;;;;;;;40.58;20.27;;;10.00;99.90;;;8.37;100.00;101885.53;5088208;28;20044;-86
2021/12/15 04:21:42;;;;;;;37.58;19.25;;;10.00;99.90;;;8.34;100.00;101894.81;5087835;28;20044;-86
2021/12/15 04:24:14;;;;;;;36.40;18.67;;;10.00;99.90;;;8.35;100.00;101882.09;5069847;28;20453;-86
2021/12/15 04:26:45;;;;;;;32.88;18.33;;;10.00;99.90;;;8.40;100.00;101885.28;5069825;28;20040;-86
2021/12/15 04:29:12;;;;;;;37.23;18.37;;;10.10;99.90;;;8.41;100.00;101881.53;5090621;28;20105;-86
2021/12/15 04:31:45;;;;;;;33.38;18.23;;;10.10;99.90;;;8.34;100.00;101891.22;5080187;28;20052;-86
2021/12/15 04:34:13;;;;;;;35.97;18.42;;;10.00;99.90;;;8.36;100.00;101891.97;5071403;28;20634;-86
2021/12/15 04:36:44;;;;;;;36.40;19.20;;;10.00;99.90;;;8.34;100.00;101896.63;5053176;28;20511;-86
2021/12/15 04:39:16;;;;;;;35.67;18.45;;;10.00;99.90;;;8.37;100.00;101890.94;5071414;28;20821;-86
2021/12/15 04:41:48;;;;;;;30.92;16.88;;;10.00;99.90;;;8.35;100.00;101888.38;5090405;28;20044;-86
2021/12/15 04:44:18;;;;;;;31.15;18.35;;;10.10;99.90;;;8.35;100.00;101891.09;5091049;28;20460;-86
2021/12/15 04:46:50;;;;;;;32.88;18.50;;;10.00;99.90;;;8.43;100.00;101895.00;5091219;28;20131;-86
2021/12/15 04:49:19;;;;;;;30.20;16.77;;;10.00;99.90;;;8.41;100.00;101887.88;5091526;28;20052;-86
2021/12/15 04:51:48;;;;;;;32.67;17.45;;;10.00;99.90;;;8.46;100.00;101892.88;5090990;28;20097;-85
2021/12/15 04:54:16;;;;;;;31.38;17.00;;;10.00;99.90;;;8.39;100.00;101891.69;5091162;28;20083;-86
2021/12/15 04:56:45;;;;;;;30.08;16.73;;;10.00;99.90;;;8.40;100.00;101896.97;5091419;28;20089;-86
2021/12/15 04:59:13;;;;;;;29.45;16.10;;;10.00;99.90;;;8.46;100.00;101906.44;5090836;28;20075;-86
2021/12/15 05:01:41;;;;;;;32.38;16.52;;;10.10;99.90;;;8.52;100.00;101908.59;5072284;28;20101;-87
2021/12/15 05:04:08;;;;;;;25.42;15.15;;;10.00;99.90;;;8.54;100.00;101903.91;5090013;28;20063;-86
2021/12/15 05:06:36;;;;;;;28.27;15.77;;;10.00;99.90;;;8.53;100.00;101915.78;5090562;28;20131;-87
2021/12/15 05:09:05;;;;;;;28.23;15.93;;;10.00;99.90;;;8.43;100.00;101912.13;5090866;28;20328;-85
2021/12/15 05:11:32;;;;;;;28.23;15.38;;;10.00;99.90;;;8.48;100.00;101909.88;5090604;28;20134;-86
2021/12/15 05:14:02;;;;;;;27.60;15.63;;;10.00;99.90;;;8.49;100.00;101913.44;5090255;28;20051;-86
2021/12/15 05:16:29;;;;;;;32.13;16.42;;;10.00;99.90;;;8.48;100.00;101915.31;5080669;28;20085;-86
2021/12/15 05:18:56;;;;;;;27.35;16.30;;;10.00;99.90;;;8.44;100.00;101916.59;5070236;28;20044;-86
2021/12/15 05:21:24;;;;;;;28.20;15.40;;;10.10;99.90;;;8.41;100.00;101911.38;5070488;28;20044;-86
2021/12/15 05:23:56;;;;;;;27.02;15.63;;;10.10;99.90;;;8.44;100.00;101913.88;5070086;28;20067;-86
2021/12/15 05:26:24;;;;;;;28.42;15.32;;;10.10;99.90;;;8.47;100.00;101916.28;5070587;28;20040;-86
2021/12/15 05:28:52;;;;;;;26.38;16.02;;;10.10;99.90;;;8.41;100.00;101920.44;5070276;28;20045;-87
2021/12/15 05:31:20;;;;;;;25.60;15.23;;;10.10;99.90;;;8.37;100.00;101918.94;5069811;28;20412;-86
2021/12/15 05:33:48;;;;;;;28.98;15.45;;;10.10;99.90;;;8.37;100.00;101910.78;5070271;28;20130;-86
2021/12/15 05:36:16;;;;;;;29.25;16.10;;;10.20;99.90;;;8.37;100.00;101915.38;5070405;28;20045;-86
2021/12/15 05:38:43;;;;;;;26.17;14.68;;;10.10;99.90;;;8.41;100.00;101916.81;5070096;28;20052;-86
2021/12/15 05:41:10;;;;;;;30.80;14.93;;;10.10;99.90;;;8.45;100.00;101920.16;5083913;28;20050;-86
2021/12/15 05:43:38;;;;;;;26.85;14.55;;;10.10;99.90;;;8.43;100.00;101922.13;5090237;28;20128;-87
2021/12/15 05:46:06;;;;;;;23.42;14.38;;;10.10;99.90;;;8.46;100.00;101925.44;5089626;28;20068;-86
2021/12/15 05:48:34;;;;;;;25.38;14.10;;;10.10;99.90;;;8.43;100.00;101923.00;5090286;28;20082;-87
2021/12/15 05:51:05;;;;;;;24.48;14.35;;;10.10;99.90;;;8.41;100.00;101922.22;5089795;28;20048;-86
2021/12/15 05:53:32;;;;;;;31.02;14.15;;;10.10;99.90;;;8.48;100.00;101926.16;5090463;28;20458;-85
2021/12/15 05:56:00;;;;;;;21.38;12.75;;;10.00;99.90;;;8.53;100.00;101932.06;5090102;28;20110;-86
2021/12/15 05:58:33;;;;;;;21.52;13.25;;;10.00;99.90;;;8.47;100.00;101935.28;5090027;28;20628;-90
2021/12/15 06:01:01;;;;;;;19.90;12.75;;;10.20;99.90;;;8.52;100.00;101933.03;5071013;28;20048;-88
2021/12/15 06:03:28;;;;;;;28.85;13.55;;;10.10;99.90;;;8.54;100.00;101941.88;5089902;28;20097;-91
2021/12/15 06:05:57;;;;;;;21.40;13.35;;;10.10;99.90;;;8.57;100.00;101935.34;5089655;28;20070;-90
2021/12/15 06:08:24;;;;;;;22.48;13.43;;;10.10;99.90;;;8.58;100.00;101932.47;5056348;28;20456;-90
2021/12/15 06:10:52;;;;;;;25.10;14.23;;;10.10;99.90;;;8.45;100.00;101934.56;5031345;28;20052;-89
2021/12/15 06:13:22;;;;;;;24.48;13.95;;;10.10;99.90;;;8.47;100.00;101934.44;5049125;28;20041;-89
2021/12/15 06:15:50;;;;;;;23.33;13.93;;;10.10;99.90;;;8.51;100.00;101934.03;5047677;28;20045;-89
2021/12/15 06:18:20;;;;;;;23.23;13.80;;;10.10;99.90;;;8.44;100.00;101940.16;5049613;28;20049;-87
2021/12/15 06:20:50;;;;;;;24.60;13.82;;;10.10;99.90;;;8.44;100.00;101940.16;5048198;28;20132;-89
2021/12/15 06:23:22;;;;;;;24.75;14.05;;;10.10;99.90;;;8.46;100.00;101939.00;5049153;28;20055;-89
2021/12/15 06:25:52;;;;;;;22.00;13.73;;;10.10;99.90;;;8.44;100.00;101932.00;5049304;28;20126;-88
2021/12/15 06:28:20;;;;;;;26.08;14.13;;;10.10;99.90;;;8.52;100.00;101945.75;5063499;28;20051;-89
2021/12/15 06:30:48;;;;;;;23.75;14.38;;;10.10;99.90;;;8.41;100.00;101938.50;5048656;28;20532;-90
2021/12/15 06:33:19;;;;;;;24.17;14.48;;;10.10;99.90;;;8.39;100.00;101937.78;5048665;28;20490;-94
2021/12/15 06:35:53;;;;;;;25.58;14.48;;;10.10;99.90;;;8.46;100.00;101943.59;5047644;28;20064;-89
2021/12/15 06:38:23;;;;;;;24.17;14.23;;;10.10;99.90;;;8.49;100.00;101940.56;5048959;28;20098;-92
2021/12/15 06:40:51;;;;;;;23.65;13.23;;;10.10;99.90;;;8.55;100.00;101950.91;5073028;28;20055;-87
2021/12/15 06:43:19;;;;;;;21.08;13.25;;;10.10;99.90;;;8.49;100.00;101955.03;5088815;28;20194;-85
2021/12/15 06:45:59;;;;;;;28.20;13.95;;;10.10;99.90;;;8.51;100.00;101958.47;5088639;28;20073;-86
2021/12/15 06:59:24;;;;;;;24.65;14.77;;;10.10;99.90;;;8.51;100.00;101963.88;5068310;28;20048;-87
2021/12/15 07:01:53;;;;;;;24.02;13.85;;;10.10;99.90;;;8.51;100.00;101968.44;5068385;28;20152;-86
2021/12/15 07:04:22;;;;;;;24.95;14.48;;;10.10;99.90;;;8.49;100.00;101970.41;5067940;28;20118;-87
2021/12/15 07:06:52;;;;;;;28.13;14.88;;;10.10;99.90;;;8.50;100.00;101973.00;5068461;28;20558;-87
2021/12/15 07:09:22;;;;;;;24.02;14.23;;;10.10;99.90;;;8.49;100.00;101973.13;5049644;28;20080;-87
2021/12/15 07:11:50;;;;;;;24.70;15.20;;;10.10;99.90;;;8.46;100.00;101968.00;5066558;28;20614;-88
2021/12/15 07:14:18;;;;;;;24.60;14.52;;;10.10;99.90;;;8.47;100.00;101978.69;5066922;28;20135;-88
2021/12/15 07:16:48;;;;;;;22.73;14.30;;;10.10;99.90;;;8.47;100.00;101975.13;5068122;28;20052;-87
2021/12/15 07:19:20;;;;;;;28.23;14.82;;;10.10;99.90;;;8.43;100.00;101970.97;5068559;28;20041;-87
2021/12/15 07:21:55;;;;;;;23.15;14.77;;;10.10;99.90;;;8.36;100.00;101971.47;5068112;28;20036;-87
2021/12/15 07:24:23;;;;;;;25.25;15.77;;;10.10;99.90;;;8.48;100.00;101977.72;5068086;28;20506;-87
2021/12/15 07:26:52;;;;;;;22.25;14.32;;;10.10;99.90;;;8.50;100.00;101975.72;5064536;28;20041;-86
2021/12/15 07:29:19;;;;;;;25.90;15.48;;;10.10;99.90;;;8.49;100.00;101978.56;5080505;28;20123;-86
2021/12/15 07:31:46;;;;;;;23.35;14.80;;;10.10;99.90;;;8.50;100.00;101983.88;5060817;28;20151;-88
2021/12/15 07:34:13;;;;;;;28.00;15.68;;;10.10;99.90;;;8.49;100.00;101986.69;5088301;28;20044;-88
2021/12/15 07:36:41;;;;;;;24.77;16.13;;;10.10;99.90;;;8.53;100.00;101982.72;5083814;28;20516;-88
2021/12/15 07:39:11;;;;;;;22.88;14.82;;;10.10;99.90;;;8.58;100.00;101986.75;5084077;28;20048;-87
2021/12/15 07:41:49;;;;;;;31.90;16.23;;;10.20;99.90;;;8.54;100.00;101979.88;5069448;28;20048;-89
2021/12/15 07:44:19;;;;;;;28.02;16.90;;;10.20;99.90;;;8.52;100.00;101992.72;5067948;28;20674;-86
2021/12/15 07:46:47;;;;;;;27.52;16.63;;;10.20;99.90;;;8.54;100.00;101993.44;5072199;28;20048;-84
2021/12/15 07:49:15;;;;;;;28.48;16.20;;;10.20;99.90;;;8.54;100.00;101989.88;5084130;28;20067;-88
2021/12/15 07:51:44;;;;;;;26.58;16.58;;;10.20;99.90;;;8.53;100.00;101991.75;5047861;28;20505;-88
2021/12/15 07:54:14;;;;;;;28.90;17.98;;;10.20;99.90;;;8.55;100.00;101994.31;5047935;28;20088;-88
2021/12/15 07:56:43;;;;;;;26.83;16.42;;;10.20;99.90;;;8.58;100.00;101992.19;5041371;28;20047;-87
2021/12/15 07:59:10;;;;;;;27.45;17.52;;;10.20;99.90;;;8.58;100.00;101991.31;5083656;28;20071;-88
2021/12/15 08:01:39;;;;;;;27.70;17.63;;;10.20;99.90;;;8.59;100.00;101982.22;5074427;28;20044;-87
2021/12/15 08:04:06;;;;;;;27.02;17.15;;;10.20;99.90;;;8.57;100.00;101990.47;5070365;28;20123;-87
2021/12/15 08:06:33;;;;;;;30.35;18.52;;;10.20;99.90;;;8.58;100.00;101997.59;5069099;28;20064;-86
2021/12/15 08:09:01;;;;;;;32.95;18.35;;;10.20;99.90;;;8.51;100.00;101993.72;5072761;28;20040;-90
2021/12/15 08:11:29;;;;;;;30.65;18.42;;;10.20;99.90;;;8.50;100.00;101993.88;5070922;28;20044;-83
2021/12/15 08:13:58;;;;;;;31.27;18.70;;;10.20;99.90;;;8.55;100.00;101987.03;5081529;28;20106;-83
2021/12/15 08:16:25;;;;;;;30.15;17.95;;;10.20;99.90;;;8.57;100.00;101987.75;5069276;28;20480;-83
2021/12/15 08:18:52;;;;;;;26.95;17.38;;;10.20;99.90;;;8.60;100.00;102000.19;5074895;28;20074;-83
2021/12/15 08:21:20;;;;;;;32.45;18.02;;;10.20;99.90;;;8.53;100.00;101999.00;5085416;28;20400;-83
2021/12/15 08:23:47;;;;;;;30.05;19.35;;;10.20;99.90;;;8.60;100.00;102001.06;5061636;28;20046;-83
2021/12/15 08:26:15;;;;;;;27.33;16.88;;;10.20;99.90;;;8.59;100.00;101999.34;5079463;28;20048;-83
2021/12/15 08:28:42;;;;;;;29.90;17.70;;;10.20;99.90;;;8.57;100.00;102001.31;5059696;28;20037;-89
2021/12/15 08:31:11;;;;;;;29.52;18.88;;;10.20;99.90;;;8.55;100.00;102003.31;5061719;28;20543;-83
2021/12/15 08:33:40;;;;;;;31.02;18.77;;;10.30;99.90;;;8.53;100.00;102009.84;5085789;28;20557;-83
2021/12/15 08:36:11;;;;;;;33.50;17.92;;;10.20;99.90;;;8.53;100.00;102015.28;5056197;28;20033;-85
2021/12/15 08:38:43;;;;;;;33.95;19.77;;;10.20;99.90;;;8.57;100.00;102005.91;5067479;28;20116;-84
2021/12/15 08:41:14;;;;;;;30.73;18.90;;;10.20;99.90;;;8.64;100.00;102023.34;5084501;28;20102;-85
2021/12/15 08:43:42;;;;;;;26.98;18.23;;;10.20;99.90;;;8.66;100.00;102007.78;5069817;28;20066;-84
2021/12/15 08:46:14;;;;;;;31.23;18.73;;;10.20;99.90;;;8.67;100.00;102014.94;5073297;28;20043;-85
2021/12/15 08:48:54;;;;;;;28.58;19.17;;;10.20;99.90;;;8.62;100.00;102009.06;5068024;28;20433;-85
2021/12/15 08:51:25;;;;;;;34.05;19.67;;;10.20;99.90;;;8.61;100.00;102024.47;5070009;28;20060;-85
2021/12/15 08:53:55;;;;;;;31.98;19.00;;;10.30;99.90;;;8.58;100.00;102024.75;5087551;28;20052;-85
2021/12/15 08:56:23;;;;;;;32.20;18.63;;;10.30;99.90;;;8.62;100.00;102022.63;5073373;28;20052;-84
2021/12/15 08:58:50;;;;;;;29.67;18.42;;;10.30;99.90;;;8.57;100.00;102022.19;5076577;28;20047;-85
2021/12/15 09:01:19;;;;;;;27.48;17.30;;;10.30;99.90;;;8.63;100.00;102031.66;5074903;28;20031;-85
2021/12/15 09:03:47;;;;;;;32.88;19.98;;;10.30;99.90;;;8.69;100.00;102023.81;5063455;28;20052;-86
2021/12/15 09:06:15;;;;;;;30.13;18.88;;;10.30;99.90;;;8.71;100.00;102029.09;5082977;28;20043;-85
2021/12/15 09:08:45;;;;;;;32.65;19.40;;;10.30;99.90;;;8.73;100.00;102032.53;5056884;28;20044;-85
2021/12/15 09:11:17;;;;;;;30.58;18.92;;;10.30;99.90;;;8.74;100.00;102026.13;5068619;28;20435;-85
2021/12/15 09:13:47;;;;;;;31.00;18.92;;;10.30;99.90;;;8.68;100.00;102026.66;5086573;28;20117;-85
2021/12/15 09:16:15;;;;;;;34.17;20.20;;;10.30;99.90;;;8.65;100.00;102033.22;5070965;28;20041;-85
2021/12/15 09:18:47;;;;;;;34.40;19.92;;;10.30;99.90;;;8.72;100.00;102036.22;5058302;28;20390;-86
2021/12/15 09:21:17;;;;;;;32.17;19.38;;;10.30;99.90;;;8.71;100.00;102039.97;5076715;28;20039;-86
2021/12/15 09:23:46;;;;;;;30.65;18.25;;;10.40;99.90;;;8.72;100.00;102037.13;5073654;28;20041;-85
2021/12/15 09:26:14;;;;;;;30.38;18.65;;;10.40;99.90;;;8.73;100.00;102043.41;5084996;28;20048;-85
2021/12/15 09:28:42;;;;;;;40.25;20.65;;;10.30;99.90;;;8.80;100.00;102047.31;5067533;28;20538;-83
2021/12/15 09:31:11;;;;;;;36.03;20.48;;;10.30;99.90;;;8.77;100.00;102039.41;5076972;28;20577;-83
2021/12/15 09:33:41;;;;;;;31.27;18.67;;;10.40;99.90;;;8.75;100.00;102038.69;5086632;28;20055;-83
2021/12/15 09:36:12;;;;;;;32.58;19.08;;;10.40;99.90;;;8.74;100.00;102040.56;5071374;28;20033;-83
2021/12/15 09:38:41;;;;;;;32.08;19.52;;;10.40;99.90;;;8.74;100.00;102028.84;5085939;28;20044;-83
2021/12/15 09:41:12;;;;;;;30.08;17.90;;;10.40;99.90;;;8.76;100.00;102043.13;5080998;28;20039;-84
2021/12/15 09:43:40;;;;;;;32.58;18.27;;;10.40;99.90;;;8.77;100.00;102042.13;5069686;28;20040;-84
2021/12/15 09:46:14;;;;;;;27.02;17.48;;;10.40;99.90;;;8.78;100.00;102042.00;5073352;28;20575;-83
2021/12/15 09:57:23;;;;;;;29.30;17.80;;;10.40;99.90;;;8.88;100.00;102050.19;5081778;28;20043;-84
2021/12/15 10:02:55;;;;;;;30.20;17.85;;;10.40;99.90;;;8.86;100.00;102051.31;5025908;28;20576;-83
2021/12/15 10:19:46;;;;;;;34.22;19.55;;;10.50;99.90;;;8.86;100.00;102044.03;5067070;28;20072;-87
2021/12/15 10:22:29;;;;;;;32.33;18.90;;;10.50;99.90;;;8.86;100.00;102044.03;5075345;28;20047;-86
2021/12/15 10:25:00;;;;;;;31.05;19.05;;;10.40;99.90;;;8.92;100.00;102043.50;5052358;28;20045;-86
2021/12/15 10:27:43;;;;;;;33.40;18.13;;;10.50;99.90;;;8.92;100.00;102035.34;5078114;28;20064;-86
2021/12/15 10:30:18;;;;;;;28.90;18.45;;;10.50;99.90;;;8.88;100.00;102041.19;5049161;28;20079;-86
2021/12/15 10:32:50;;;;;;;30.52;17.48;;;10.50;99.90;;;8.91;100.00;102041.78;5030621;28;20048;-88
2021/12/15 10:35:22;;;;;;;27.98;17.75;;;10.50;99.90;;;8.93;100.00;102039.78;5046967;28;20052;-87
2021/12/15 10:38:21;;;;;;;32.95;18.45;;;10.50;99.90;;;8.90;100.00;102047.34;5079374;28;20458;-89
2021/12/15 10:40:55;;;;;;;30.27;18.25;;;10.50;99.90;;;8.94;100.00;102044.22;5049985;28;20048;-88
2021/12/15 10:43:27;;;;;;;29.05;17.55;;;10.50;99.90;;;8.87;100.00;102048.50;5050365;28;20509;-88
2021/12/15 10:45:58;;;;;;;32.35;19.38;;;10.50;99.90;;;8.95;100.00;102051.38;5068542;28;20090;-88
2021/12/15 10:48:36;;;;;;;31.63;18.08;;;10.50;99.90;;;8.86;100.00;102044.03;5050648;28;20040;-88
2021/12/15 10:51:26;;;;;;;32.78;19.25;;;10.60;99.90;;;8.91;100.00;102052.66;5050397;28;20050;-88
2021/12/15 10:53:56;;;;;;;30.20;18.30;;;10.50;99.90;;;8.91;100.00;102040.91;5068380;28;20459;-89
2021/12/15 10:56:28;;;;;;;35.63;19.17;;;10.50;99.90;;;8.85;100.00;102049.59;5076146;28;20496;-88
2021/12/15 10:58:59;;;;;;;32.03;19.13;;;10.60;99.90;;;8.86;100.00;102046.75;5086793;28;20506;-88
2021/12/15 11:01:41;;;;;;;33.17;18.90;;;10.40;99.90;;;8.93;100.00;102041.63;5088513;28;20109;-87
2021/12/15 11:04:44;;;;;;;33.35;19.48;;;10.60;99.90;;;8.96;100.00;102047.66;5069263;28;20044;-88
2021/12/15 11:07:22;;;;;;;30.80;19.13;;;10.60;99.90;;;8.96;100.00;102039.50;5034165;28;20633;-89
2021/12/15 11:09:55;;;;;;;29.00;17.98;;;10.60;99.90;;;9.04;100.00;102043.38;5088610;28;20044;-89
2021/12/15 11:12:28;;;;;;;32.60;19.75;;;10.60;99.90;;;9.04;100.00;102037.97;5082401;28;20037;-87
2021/12/15 11:14:59;;;;;;;37.65;19.58;;;10.60;99.90;;;9.00;100.00;102035.53;5066138;28;20044;-88
2021/12/15 11:17:29;;;;;;;36.85;19.15;;;10.60;99.90;;;9.05;100.00;102045.13;5068280;28;20432;-88